Time;durP1;ratioP1;P1;durP2;ratioP2;P2;SDS_P1;SDS_P2;PMS_P1;PMS_P2;Temp;Humidity;BMP_temperature;BMP_pressure;BME280_temperature;BME280_humidity;BME280_pressure;Samples;Min_cycle;Max_cycle;Signal;HPM_P1;HPM_P2
2023/09/02 00:02:09;;;;;;;;;;;;;;;;;;5057541;28;20518;-61
2023/09/02 00:04:34;;;;;;;;;;;;;;;;;;5062007;28;19978;-61
2023/09/02 00:07:00;;;;;;;;;;;;;;;;;;5058896;28;20000;-62
2023/09/02 00:09:26;;;;;;;;;;;;;;;;;;5072705;28;19913;-60
2023/09/02 00:11:52;;;;;;;;;;;;;;;;;;5063357;28;19913;-59
2023/09/02 00:14:18;;;;;;;;;;;;;;;;;;5067410;28;20411;-59
2023/09/02 00:16:44;;;;;;;;;;;;;;;;;;5063668;28;19959;-60
2023/09/02 00:19:10;;;;;;;;;;;;;;;;;;5085054;28;19915;-60
2023/09/02 00:21:36;;;;;;;;;;;;;;;;;;5072132;28;19967;-59
2023/09/02 00:24:02;;;;;;;;;;;;;;;;;;5076298;28;20428;-60
2023/09/02 00:26:28;;;;;;;;;;;;;;;;;;5071698;28;20391;-60
2023/09/02 00:28:54;;;;;;;;;;;;;;;;;;5064520;28;19976;-60
2023/09/02 00:31:20;;;;;;;;;;;;;;;;;;5066844;28;19939;-60
2023/09/02 00:33:46;;;;;;;;;;;;;;;;;;5058991;28;19922;-60
2023/09/02 00:36:12;;;;;;;;;;;;;;;;;;5068877;28;19916;-60
2023/09/02 00:38:37;;;;;;;;;;;;;;;;;;5060888;28;19989;-60
2023/09/02 00:41:06;;;;;;;;;;;;;;;;;;5065671;28;19920;-60
2023/09/02 00:43:31;;;;;;;;;;;;;;;;;;5072010;28;19920;-59
2023/09/02 00:45:57;;;;;;;;;;;;;;;;;;5063151;28;20011;-61
2023/09/02 00:48:23;;;;;;;;;;;;;;;;;;5067528;28;20368;-60
2023/09/02 00:50:49;;;;;;;;;;;;;;;;;;5061890;28;19963;-59
2023/09/02 00:53:16;;;;;;;;;;;;;;;;;;5059546;28;20376;-59
2023/09/02 00:55:42;;;;;;;;;;;;;;;;;;5067450;28;19917;-60
2023/09/02 00:58:08;;;;;;;;;;;;;;;;;;5071712;28;19999;-59
2023/09/02 01:00:34;;;;;;;;;;;;;;;;;;5061749;28;20019;-59
2023/09/02 01:03:00;;;;;;;;;;;;;;;;;;5063519;28;19913;-59
2023/09/02 01:05:26;;;;;;;;;;;;;;;;;;5069596;28;19924;-59
2023/09/02 01:07:52;;;;;;;;;;;;;;;;;;5067859;28;19948;-60
2023/09/02 01:10:18;;;;;;;;;;;;;;;;;;5064289;28;20279;-60
2023/09/02 01:12:44;;;;;;;;;;;;;;;;;;5066458;28;19916;-60
2023/09/02 01:15:09;;;;;;;;;;;;;;;;;;5063413;28;20008;-60
2023/09/02 01:17:35;;;;;;;;;;;;;;;;;;5073682;28;20314;-60
2023/09/02 01:20:03;;;;;;;;;;;;;;;;;;5070030;28;20012;-60
2023/09/02 01:22:29;;;;;;;;;;;;;;;;;;5061749;28;19913;-59
2023/09/02 01:24:55;;;;;;;;;;;;;;;;;;5059616;28;20311;-59
2023/09/02 01:27:21;;;;;;;;;;;;;;;;;;5067280;28;20021;-60
2023/09/02 01:29:47;;;;;;;;;;;;;;;;;;5060142;28;20459;-60
2023/09/02 01:32:13;;;;;;;;;;;;;;;;;;5059589;28;19912;-60
2023/09/02 01:34:38;;;;;;;;;;;;;;;;;;5063816;28;20369;-59
2023/09/02 01:37:04;;;;;;;;;;;;;;;;;;5065276;28;20011;-60
2023/09/02 01:39:30;;;;;;;;;;;;;;;;;;5065445;28;19913;-60
2023/09/02 01:41:56;;;;;;;;;;;;;;;;;;5059165;28;19919;-59
2023/09/02 01:44:22;;;;;;;;;;;;;;;;;;5064783;28;20354;-60
2023/09/02 01:46:48;;;;;;;;;;;;;;;;;;5065141;28;20348;-60
2023/09/02 01:49:14;;;;;;;;;;;;;;;;;;5071870;28;20019;-59
2023/09/02 01:51:40;;;;;;;;;;;;;;;;;;5061266;28;19999;-60
2023/09/02 01:54:06;;;;;;;;;;;;;;;;;;5059173;28;20307;-59
2023/09/02 01:56:32;;;;;;;;;;;;;;;;;;5067112;28;20380;-59
2023/09/02 01:58:57;;;;;;;;;;;;;;;;;;5059806;28;19963;-60
2023/09/02 02:01:24;;;;;;;;;;;;;;;;;;5059856;28;19913;-60
2023/09/02 02:03:50;;;;;;;;;;;;;;;;;;5067506;28;20292;-60
2023/09/02 02:06:16;;;;;;;;;;;;;;;;;;5066413;28;19912;-60
2023/09/02 02:08:44;;;;;;;;;;;;;;;;;;5065001;28;19978;-60
2023/09/02 02:11:10;;;;;;;;;;;;;;;;;;5060399;28;19912;-61
2023/09/02 02:13:36;;;;;;;;;;;;;;;;;;5055216;28;19959;-60
2023/09/02 02:16:02;;;;;;;;;;;;;;;;;;5059184;28;19942;-60
2023/09/02 02:18:27;;;;;;;;;;;;;;;;;;5054538;28;19913;-60
2023/09/02 02:20:53;;;;;;;;;;;;;;;;;;5061893;28;19959;-60
2023/09/02 02:23:19;;;;;;;;;;;;;;;;;;5068630;28;19920;-59
2023/09/02 02:25:45;;;;;;;;;;;;;;;;;;5069258;28;19919;-59
2023/09/02 02:28:11;;;;;;;;;;;;;;;;;;5057083;28;19921;-59
2023/09/02 02:30:37;;;;;;;;;;;;;;;;;;5065260;28;19952;-60
2023/09/02 02:33:03;;;;;;;;;;;;;;;;;;5072202;28;19919;-60
2023/09/02 02:35:29;;;;;;;;;;;;;;;;;;5072617;28;19928;-59
2023/09/02 02:37:55;;;;;;;;;;;;;;;;;;5070585;28;19987;-61
2023/09/02 02:40:22;;;;;;;;;;;;;;;;;;5061190;28;19917;-59
2023/09/02 02:42:48;;;;;;;;;;;;;;;;;;5060962;28;20289;-59
2023/09/02 02:45:14;;;;;;;;;;;;;;;;;;5061309;28;19945;-59
2023/09/02 02:47:40;;;;;;;;;;;;;;;;;;5067838;28;19919;-60
2023/09/02 02:50:05;;;;;;;;;;;;;;;;;;5067418;28;19975;-59
2023/09/02 02:52:31;;;;;;;;;;;;;;;;;;5069078;28;19923;-60
2023/09/02 02:54:57;;;;;;;;;;;;;;;;;;5066598;28;19973;-60
2023/09/02 02:57:23;;;;;;;;;;;;;;;;;;5070133;28;19947;-59
2023/09/02 02:59:49;;;;;;;;;;;;;;;;;;5058309;28;19921;-59
2023/09/02 03:02:15;;;;;;;;;;;;;;;;;;5062496;28;19913;-59
2023/09/02 03:04:46;;;;;;;;;;;;;;;;;;5071293;28;19913;-60
2023/09/02 03:07:12;;;;;;;;;;;;;;;;;;5058189;28;19948;-59
2023/09/02 03:09:38;;;;;;;;;;;;;;;;;;5065063;28;20021;-60
2023/09/02 03:12:04;;;;;;;;;;;;;;;;;;5057831;28;20373;-59
2023/09/02 03:14:30;;;;;;;;;;;;;;;;;;5070269;28;19912;-60
2023/09/02 03:16:56;;;;;;;;;;;;;;;;;;5055979;28;20053;-60
2023/09/02 03:19:22;;;;;;;;;;;;;;;;;;5069999;28;19917;-60
2023/09/02 03:21:47;;;;;;;;;;;;;;;;;;5058866;28;19990;-59
2023/09/02 03:24:13;;;;;;;;;;;;;;;;;;5053392;28;19958;-60
2023/09/02 03:26:39;;;;;;;;;;;;;;;;;;5068878;28;19970;-59
2023/09/02 03:29:05;;;;;;;;;;;;;;;;;;5065983;28;20363;-60
2023/09/02 03:31:31;;;;;;;;;;;;;;;;;;5058171;28;20412;-62
2023/09/02 03:33:57;;;;;;;;;;;;;;;;;;5067301;28;20011;-62
2023/09/02 03:36:23;;;;;;;;;;;;;;;;;;5069353;28;19912;-62
2023/09/02 03:38:49;;;;;;;;;;;;;;;;;;5072316;28;19916;-60
2023/09/02 03:41:18;;;;;;;;;;;;;;;;;;5067707;28;20261;-61
2023/09/02 03:43:44;;;;;;;;;;;;;;;;;;5065829;28;19920;-61
2023/09/02 03:46:10;;;;;;;;;;;;;;;;;;5055830;28;20292;-61
2023/09/02 03:48:36;;;;;;;;;;;;;;;;;;5066474;28;19956;-61
2023/09/02 03:51:03;;;;;;;;;;;;;;;;;;5060712;28;20002;-62
2023/09/02 03:53:29;;;;;;;;;;;;;;;;;;5073129;28;19912;-62
2023/09/02 03:55:55;;;;;;;;;;;;;;;;;;5070789;28;20287;-61
2023/09/02 03:58:21;;;;;;;;;;;;;;;;;;5072310;28;20067;-62
2023/09/02 04:00:47;;;;;;;;;;;;;;;;;;5071063;28;20015;-61
2023/09/02 04:03:15;;;;;;;;;;;;;;;;;;5064625;28;19924;-61
2023/09/02 04:05:41;;;;;;;;;;;;;;;;;;5067401;28;19912;-61
2023/09/02 04:08:07;;;;;;;;;;;;;;;;;;5067577;28;19956;-61
2023/09/02 04:10:33;;;;;;;;;;;;;;;;;;5068662;28;19955;-61
2023/09/02 04:12:58;;;;;;;;;;;;;;;;;;5057128;28;20007;-61
2023/09/02 04:15:25;;;;;;;;;;;;;;;;;;5058649;28;20398;-61
2023/09/02 04:17:51;;;;;;;;;;;;;;;;;;5063698;28;19912;-61
2023/09/02 04:20:17;;;;;;;;;;;;;;;;;;5065337;28;19943;-61
2023/09/02 04:22:43;;;;;;;;;;;;;;;;;;5055265;28;19920;-62
2023/09/02 04:25:10;;;;;;;;;;;;;;;;;;5061535;28;20283;-62
2023/09/02 04:27:36;;;;;;;;;;;;;;;;;;5061089;28;19913;-61
2023/09/02 04:30:02;;;;;;;;;;;;;;;;;;5066140;28;19932;-61
2023/09/02 04:32:28;;;;;;;;;;;;;;;;;;5062491;28;19960;-61
2023/09/02 04:34:54;;;;;;;;;;;;;;;;;;5058767;28;19918;-62
2023/09/02 04:37:20;;;;;;;;;;;;;;;;;;5062436;28;19920;-62
2023/09/02 04:39:46;;;;;;;;;;;;;;;;;;5067352;28;20019;-61
2023/09/02 04:42:12;;;;;;;;;;;;;;;;;;5071716;28;19931;-61
2023/09/02 04:44:38;;;;;;;;;;;;;;;;;;5081124;28;20007;-61
2023/09/02 04:47:04;;;;;;;;;;;;;;;;;;5064981;28;19935;-62
2023/09/02 04:49:29;;;;;;;;;;;;;;;;;;5057830;28;20410;-62
2023/09/02 04:51:55;;;;;;;;;;;;;;;;;;5069493;28;20389;-61
2023/09/02 04:54:21;;;;;;;;;;;;;;;;;;5070961;28;20383;-61
2023/09/02 04:56:47;;;;;;;;;;;;;;;;;;5053056;28;19913;-62
2023/09/02 04:59:13;;;;;;;;;;;;;;;;;;5055984;28;20022;-61
2023/09/02 05:01:39;;;;;;;;;;;;;;;;;;5062652;28;19942;-61
2023/09/02 05:04:05;;;;;;;;;;;;;;;;;;5050418;28;20008;-62
2023/09/02 05:06:31;;;;;;;;;;;;;;;;;;5057523;28;19920;-61
2023/09/02 05:08:57;;;;;;;;;;;;;;;;;;5066343;28;19962;-62
2023/09/02 05:11:23;;;;;;;;;;;;;;;;;;5068608;28;19955;-61
2023/09/02 05:13:48;;;;;;;;;;;;;;;;;;5066749;28;19959;-62
2023/09/02 05:16:14;;;;;;;;;;;;;;;;;;5067250;28;19912;-62
2023/09/02 05:18:40;;;;;;;;;;;;;;;;;;5064023;28;20320;-61
2023/09/02 05:21:06;;;;;;;;;;;;;;;;;;5060605;28;19966;-61
2023/09/02 05:23:32;;;;;;;;;;;;;;;;;;5060619;28;20441;-61
2023/09/02 05:25:58;;;;;;;;;;;;;;;;;;5068015;28;19919;-61
2023/09/02 05:28:24;;;;;;;;;;;;;;;;;;5069837;28;20039;-61
2023/09/02 05:30:50;;;;;;;;;;;;;;;;;;5059076;28;20376;-61
2023/09/02 05:33:16;;;;;;;;;;;;;;;;;;5063603;28;20450;-61
2023/09/02 05:35:42;;;;;;;;;;;;;;;;;;5065681;28;20368;-62
2023/09/02 05:38:09;;;;;;;;;;;;;;;;;;5063749;28;19962;-61
2023/09/02 05:40:35;;;;;;;;;;;;;;;;;;5063659;28;19923;-61
2023/09/02 05:43:01;;;;;;;;;;;;;;;;;;5067627;28;20439;-62
2023/09/02 05:45:27;;;;;;;;;;;;;;;;;;5058519;28;20031;-62
2023/09/02 05:47:53;;;;;;;;;;;;;;;;;;5067404;28;19959;-62
2023/09/02 05:50:19;;;;;;;;;;;;;;;;;;5059161;28;19913;-60
2023/09/02 05:52:45;;;;;;;;;;;;;;;;;;5064063;28;19916;-60
2023/09/02 05:55:10;;;;;;;;;;;;;;;;;;5056378;28;19919;-60
2023/09/02 05:57:36;;;;;;;;;;;;;;;;;;5068769;28;19916;-60
2023/09/02 06:00:03;;;;;;;;;;;;;;;;;;5067673;28;19954;-61
2023/09/02 06:02:30;;;;;;;;;;;;;;;;;;5063705;28;19917;-59
2023/09/02 06:04:56;;;;;;;;;;;;;;;;;;5063072;28;19948;-59
2023/09/02 06:07:22;;;;;;;;;;;;;;;;;;5062011;28;19955;-59
2023/09/02 06:09:48;;;;;;;;;;;;;;;;;;5063637;28;19924;-60
2023/09/02 06:12:14;;;;;;;;;;;;;;;;;;5069461;28;20448;-59
2023/09/02 06:14:40;;;;;;;;;;;;;;;;;;5070397;28;19960;-60
2023/09/02 06:17:06;;;;;;;;;;;;;;;;;;5061508;28;20279;-60
2023/09/02 06:19:32;;;;;;;;;;;;;;;;;;5065653;28;19923;-60
2023/09/02 06:21:58;;;;;;;;;;;;;;;;;;5061107;28;19963;-59
2023/09/02 06:24:23;;;;;;;;;;;;;;;;;;5068643;28;19919;-60
2023/09/02 06:26:49;;;;;;;;;;;;;;;;;;5059724;28;20304;-60
2023/09/02 06:29:15;;;;;;;;;;;;;;;;;;5057272;28;20012;-59
2023/09/02 06:31:41;;;;;;;;;;;;;;;;;;5071968;28;19909;-60
2023/09/02 06:34:07;;;;;;;;;;;;;;;;;;5067950;28;20352;-60
2023/09/02 06:36:33;;;;;;;;;;;;;;;;;;5066009;28;20092;-61
2023/09/02 06:38:59;;;;;;;;;;;;;;;;;;5070571;28;20253;-60
2023/09/02 06:41:25;;;;;;;;;;;;;;;;;;5072363;28;20003;-60
2023/09/02 06:43:51;;;;;;;;;;;;;;;;;;5067026;28;20325;-60
2023/09/02 06:46:17;;;;;;;;;;;;;;;;;;5066472;28;20007;-59
2023/09/02 06:48:43;;;;;;;;;;;;;;;;;;5065180;28;19920;-60
2023/09/02 06:51:09;;;;;;;;;;;;;;;;;;5061751;28;19916;-60
2023/09/02 06:53:35;;;;;;;;;;;;;;;;;;5070675;28;19988;-60
2023/09/02 06:56:01;;;;;;;;;;;;;;;;;;5067220;28;19948;-60
2023/09/02 06:58:27;;;;;;;;;;;;;;;;;;5065781;28;20799;-59
2023/09/02 07:00:53;;;;;;;;;;;;;;;;;;5062159;28;20031;-57
2023/09/02 07:03:19;;;;;;;;;;;;;;;;;;5068865;28;19959;-58
2023/09/02 07:05:45;;;;;;;;;;;;;;;;;;5060673;28;21358;-57
2023/09/02 07:08:11;;;;;;;;;;;;;;;;;;5064293;28;19923;-57
2023/09/02 07:10:36;;;;;;;;;;;;;;;;;;5063297;28;19963;-57
2023/09/02 07:13:02;;;;;;;;;;;;;;;;;;5062064;28;20003;-57
2023/09/02 07:15:28;;;;;;;;;;;;;;;;;;5063785;28;19974;-57
2023/09/02 07:17:54;;;;;;;;;;;;;;;;;;5056833;28;19917;-59
2023/09/02 07:20:20;;;;;;;;;;;;;;;;;;5060995;28;19924;-60
2023/09/02 07:22:46;;;;;;;;;;;;;;;;;;5061653;28;20015;-58
2023/09/02 07:25:12;;;;;;;;;;;;;;;;;;5062365;28;19935;-57
2023/09/02 07:27:38;;;;;;;;;;;;;;;;;;5064068;28;19945;-58
2023/09/02 07:30:05;;;;;;;;;;;;;;;;;;5061125;28;21541;-59
2023/09/02 07:32:31;;;;;;;;;;;;;;;;;;5069720;28;19952;-58
2023/09/02 07:34:57;;;;;;;;;;;;;;;;;;5062331;28;20003;-57
2023/09/02 07:37:23;;;;;;;;;;;;;;;;;;5068986;28;20124;-57
2023/09/02 07:39:49;;;;;;;;;;;;;;;;;;5055353;28;22539;-57
2023/09/02 07:42:15;;;;;;;;;;;;;;;;;;5059646;28;19916;-59
2023/09/02 07:44:40;;;;;;;;;;;;;;;;;;5063896;28;20303;-60
2023/09/02 07:47:06;;;;;;;;;;;;;;;;;;5065368;28;20051;-57
2023/09/02 07:49:33;;;;;;;;;;;;;;;;;;5063300;28;19997;-60
2023/09/02 07:51:58;;;;;;;;;;;;;;;;;;5054396;28;20427;-58
2023/09/02 07:54:24;;;;;;;;;;;;;;;;;;5058353;28;20082;-61
2023/09/02 07:56:50;;;;;;;;;;;;;;;;;;5063890;28;19917;-59
2023/09/02 07:59:16;;;;;;;;;;;;;;;;;;5062731;28;19948;-57
2023/09/02 08:01:42;;;;;;;;;;;;;;;;;;5062851;28;19923;-58
2023/09/02 08:04:08;;;;;;;;;;;;;;;;;;5059268;28;20399;-57
2023/09/02 08:06:36;;;;;;;;;;;;;;;;;;5059455;28;19965;-61
2023/09/02 08:09:01;;;;;;;;;;;;;;;;;;5065185;28;21843;-62
2023/09/02 08:11:27;;;;;;;;;;;;;;;;;;5061838;28;19916;-58
2023/09/02 08:13:53;;;;;;;;;;;;;;;;;;5056025;28;19920;-58
2023/09/02 08:16:19;;;;;;;;;;;;;;;;;;5063730;28;20432;-58
2023/09/02 08:18:45;;;;;;;;;;;;;;;;;;5068496;28;20037;-58
2023/09/02 08:21:11;;;;;;;;;;;;;;;;;;5054880;28;19921;-59
2023/09/02 08:23:38;;;;;;;;;;;;;;;;;;5059065;28;20391;-57
2023/09/02 08:26:04;;;;;;;;;;;;;;;;;;5059004;28;19952;-58
2023/09/02 08:28:30;;;;;;;;;;;;;;;;;;5067416;28;20085;-57
2023/09/02 08:30:56;;;;;;;;;;;;;;;;;;5067452;28;20339;-56
2023/09/02 08:33:22;;;;;;;;;;;;;;;;;;5061433;28;20010;-59
2023/09/02 08:35:48;;;;;;;;;;;;;;;;;;5061376;28;19919;-58
2023/09/02 08:38:14;;;;;;;;;;;;;;;;;;5063435;28;19948;-60
2023/09/02 08:40:39;;;;;;;;;;;;;;;;;;5055655;28;20321;-57
2023/09/02 08:43:05;;;;;;;;;;;;;;;;;;5066007;28;19916;-60
2023/09/02 08:45:31;;;;;;;;;;;;;;;;;;5067712;28;19936;-57
2023/09/02 08:47:57;;;;;;;;;;;;;;;;;;5058115;28;19920;-58
2023/09/02 08:50:23;;;;;;;;;;;;;;;;;;5059995;28;19922;-61
2023/09/02 08:52:51;;;;;;;;;;;;;;;;;;5066651;28;19952;-58
2023/09/02 08:55:17;;;;;;;;;;;;;;;;;;5065882;28;20360;-59
2023/09/02 08:57:43;;;;;;;;;;;;;;;;;;5060384;28;19959;-56
2023/09/02 09:00:09;;;;;;;;;;;;;;;;;;5063739;28;19913;-57
2023/09/02 09:02:35;;;;;;;;;;;;;;;;;;5069970;28;19951;-57
2023/09/02 09:05:01;;;;;;;;;;;;;;;;;;5071740;28;20008;-58
2023/09/02 09:07:27;;;;;;;;;;;;;;;;;;5063737;28;20026;-57
2023/09/02 09:09:53;;;;;;;;;;;;;;;;;;5069469;28;19963;-58
2023/09/02 09:12:19;;;;;;;;;;;;;;;;;;5070273;28;19919;-58
2023/09/02 09:14:45;;;;;;;;;;;;;;;;;;5062997;28;20011;-57
2023/09/02 09:17:11;;;;;;;;;;;;;;;;;;5067159;28;19981;-60
2023/09/02 09:19:37;;;;;;;;;;;;;;;;;;5070753;28;19955;-62
2023/09/02 09:22:03;;;;;;;;;;;;;;;;;;5071045;28;20052;-63
2023/09/02 09:24:29;;;;;;;;;;;;;;;;;;5060241;28;19919;-62
2023/09/02 09:26:55;;;;;;;;;;;;;;;;;;5061048;28;20385;-61
2023/09/02 09:29:21;;;;;;;;;;;;;;;;;;5061145;28;19982;-62
2023/09/02 09:31:47;;;;;;;;;;;;;;;;;;5065666;28;19928;-61
2023/09/02 09:34:13;;;;;;;;;;;;;;;;;;5059160;28;19948;-62
2023/09/02 09:36:39;;;;;;;;;;;;;;;;;;5059029;28;19920;-62
2023/09/02 09:39:05;;;;;;;;;;;;;;;;;;5063908;28;19919;-62
2023/09/02 09:41:31;;;;;;;;;;;;;;;;;;5059849;28;19960;-62
2023/09/02 09:43:57;;;;;;;;;;;;;;;;;;5061272;28;19931;-62
2023/09/02 09:46:23;;;;;;;;;;;;;;;;;;5063434;28;19923;-63
2023/09/02 09:48:48;;;;;;;;;;;;;;;;;;5066074;28;19923;-63
2023/09/02 09:51:14;;;;;;;;;;;;;;;;;;5064572;28;20357;-63
2023/09/02 09:53:40;;;;;;;;;;;;;;;;;;5066934;28;19912;-62
2023/09/02 09:56:06;;;;;;;;;;;;;;;;;;5067499;28;19999;-62
2023/09/02 09:58:32;;;;;;;;;;;;;;;;;;5059828;28;20391;-63
2023/09/02 10:00:58;;;;;;;;;;;;;;;;;;5065003;28;20466;-61
2023/09/02 10:03:24;;;;;;;;;;;;;;;;;;5066334;28;19916;-62
2023/09/02 10:05:50;;;;;;;;;;;;;;;;;;5059906;28;19917;-62
2023/09/02 10:08:16;;;;;;;;;;;;;;;;;;5063138;28;19950;-63
2023/09/02 10:10:42;;;;;;;;;;;;;;;;;;5068189;28;19963;-63
2023/09/02 10:13:08;;;;;;;;;;;;;;;;;;5064671;28;20359;-62
2023/09/02 10:15:34;;;;;;;;;;;;;;;;;;5066207;28;19916;-62
2023/09/02 10:18:00;;;;;;;;;;;;;;;;;;5064767;28;19927;-60
2023/09/02 10:20:26;;;;;;;;;;;;;;;;;;5071107;28;19917;-61
2023/09/02 10:22:52;;;;;;;;;;;;;;;;;;5069258;28;19951;-63
2023/09/02 10:25:19;;;;;;;;;;;;;;;;;;5069554;28;19921;-62
2023/09/02 10:27:45;;;;;;;;;;;;;;;;;;5068907;28;19917;-62
2023/09/02 10:30:11;;;;;;;;;;;;;;;;;;5069100;28;20287;-60
2023/09/02 10:32:37;;;;;;;;;;;;;;;;;;5068244;28;19939;-60
2023/09/02 10:35:03;;;;;;;;;;;;;;;;;;5070147;28;19923;-60
2023/09/02 10:37:28;;;;;;;;;;;;;;;;;;5059784;28;20365;-61
2023/09/02 10:39:54;;;;;;;;;;;;;;;;;;5058382;28;19921;-60
2023/09/02 10:42:20;;;;;;;;;;;;;;;;;;5057830;28;20241;-60
2023/09/02 10:44:47;;;;;;;;;;;;;;;;;;5065790;28;19913;-60
2023/09/02 10:47:13;;;;;;;;;;;;;;;;;;5072542;28;19912;-60
2023/09/02 10:49:39;;;;;;;;;;;;;;;;;;5059871;28;19917;-61
2023/09/02 10:52:05;;;;;;;;;;;;;;;;;;5059363;28;19959;-61
2023/09/02 10:54:31;;;;;;;;;;;;;;;;;;5063376;28;19922;-61
2023/09/02 10:56:57;;;;;;;;;;;;;;;;;;5070233;28;19916;-60
2023/09/02 10:59:23;;;;;;;;;;;;;;;;;;5063242;28;20429;-61
2023/09/02 11:01:49;;;;;;;;;;;;;;;;;;5069652;28;19916;-60
2023/09/02 11:04:16;;;;;;;;;;;;;;;;;;5061642;28;20288;-61
2023/09/02 11:06:42;;;;;;;;;;;;;;;;;;5064376;28;19923;-59
2023/09/02 11:09:08;;;;;;;;;;;;;;;;;;5065851;28;19917;-59
2023/09/02 11:11:34;;;;;;;;;;;;;;;;;;5067914;28;19919;-59
2023/09/02 11:14:00;;;;;;;;;;;;;;;;;;5066708;28;19916;-60
2023/09/02 11:16:26;;;;;;;;;;;;;;;;;;5071405;28;19917;-59
2023/09/02 11:18:53;;;;;;;;;;;;;;;;;;5068172;28;19966;-60
2023/09/02 11:21:18;;;;;;;;;;;;;;;;;;5069532;28;20413;-59
2023/09/02 11:23:44;;;;;;;;;;;;;;;;;;5065619;28;19917;-60
2023/09/02 11:26:13;;;;;;;;;;;;;;;;;;5069473;28;19927;-60
2023/09/02 11:28:39;;;;;;;;;;;;;;;;;;5066933;28;19931;-60
2023/09/02 11:31:05;;;;;;;;;;;;;;;;;;5069850;28;19912;-59
2023/09/02 11:33:31;;;;;;;;;;;;;;;;;;5064868;28;19963;-60
2023/09/02 11:35:57;;;;;;;;;;;;;;;;;;5069201;28;20376;-59
2023/09/02 11:38:23;;;;;;;;;;;;;;;;;;5068699;28;19980;-60
2023/09/02 11:40:49;;;;;;;;;;;;;;;;;;5065471;28;19966;-63
2023/09/02 11:43:15;;;;;;;;;;;;;;;;;;5066954;28;19989;-61
2023/09/02 11:45:40;;;;;;;;;;;;;;;;;;5065233;28;19963;-62
2023/09/02 11:48:06;;;;;;;;;;;;;;;;;;5066473;28;20308;-63
2023/09/02 11:50:32;;;;;;;;;;;;;;;;;;5066155;28;19969;-63
2023/09/02 11:52:58;;;;;;;;;;;;;;;;;;5064517;28;19950;-62
2023/09/02 11:55:24;;;;;;;;;;;;;;;;;;5057155;28;19951;-63
2023/09/02 11:57:50;;;;;;;;;;;;;;;;;;5055322;28;19919;-62
2023/09/02 12:00:16;;;;;;;;;;;;;;;;;;5057704;28;19959;-64
2023/09/02 12:02:42;;;;;;;;;;;;;;;;;;5066557;28;20335;-63
2023/09/02 12:05:08;;;;;;;;;;;;;;;;;;5063174;28;19912;-64
2023/09/02 12:07:34;;;;;;;;;;;;;;;;;;5061475;28;20333;-63
2023/09/02 12:09:59;;;;;;;;;;;;;;;;;;5056825;28;20377;-61
2023/09/02 12:12:25;;;;;;;;;;;;;;;;;;5060607;28;19991;-63
2023/09/02 12:14:51;;;;;;;;;;;;;;;;;;5056624;28;19954;-63
2023/09/02 12:17:17;;;;;;;;;;;;;;;;;;5057032;28;19952;-63
2023/09/02 12:19:43;;;;;;;;;;;;;;;;;;5065685;28;20389;-60
2023/09/02 12:22:09;;;;;;;;;;;;;;;;;;5062499;28;20029;-62
2023/09/02 12:24:35;;;;;;;;;;;;;;;;;;5062187;28;19994;-63
2023/09/02 12:27:01;;;;;;;;;;;;;;;;;;5071215;28;19917;-62
2023/09/02 12:29:27;;;;;;;;;;;;;;;;;;5062830;28;19969;-63
2023/09/02 12:31:53;;;;;;;;;;;;;;;;;;5063202;28;19917;-63
2023/09/02 12:34:19;;;;;;;;;;;;;;;;;;5069837;28;20005;-62
2023/09/02 12:36:44;;;;;;;;;;;;;;;;;;5059512;28;20002;-63
2023/09/02 12:39:10;;;;;;;;;;;;;;;;;;5064090;28;19951;-62
2023/09/02 12:41:36;;;;;;;;;;;;;;;;;;5064853;28;20019;-62
2023/09/02 12:44:02;;;;;;;;;;;;;;;;;;5068649;28;20393;-62
2023/09/02 12:46:28;;;;;;;;;;;;;;;;;;5063804;28;19921;-62
2023/09/02 12:48:54;;;;;;;;;;;;;;;;;;5062655;28;19962;-57
2023/09/02 12:51:21;;;;;;;;;;;;;;;;;;5067558;28;20291;-62
2023/09/02 12:53:47;;;;;;;;;;;;;;;;;;5061239;28;20352;-63
2023/09/02 12:56:13;;;;;;;;;;;;;;;;;;5065710;28;19958;-62
2023/09/02 12:58:39;;;;;;;;;;;;;;;;;;5070301;28;19917;-63
2023/09/02 13:01:04;;;;;;;;;;;;;;;;;;5063166;28;19909;-63
2023/09/02 13:03:30;;;;;;;;;;;;;;;;;;5079147;28;19955;-61
2023/09/02 13:05:56;;;;;;;;;;;;;;;;;;5061624;28;20373;-63
2023/09/02 13:08:22;;;;;;;;;;;;;;;;;;5058584;28;20061;-62
2023/09/02 13:10:48;;;;;;;;;;;;;;;;;;5065354;28;20003;-62
2023/09/02 13:13:14;;;;;;;;;;;;;;;;;;5064117;28;19917;-61
2023/09/02 13:15:40;;;;;;;;;;;;;;;;;;5066136;28;20386;-62
2023/09/02 13:18:06;;;;;;;;;;;;;;;;;;5070139;28;19912;-62
2023/09/02 13:20:35;;;;;;;;;;;;;;;;;;5067250;28;20360;-62
2023/09/02 13:23:01;;;;;;;;;;;;;;;;;;5067914;28;19924;-63
2023/09/02 13:25:27;;;;;;;;;;;;;;;;;;5055016;28;19948;-63
2023/09/02 13:27:53;;;;;;;;;;;;;;;;;;5060964;28;19931;-63
2023/09/02 13:30:19;;;;;;;;;;;;;;;;;;5065042;28;19920;-61
2023/09/02 13:32:45;;;;;;;;;;;;;;;;;;5068787;28;20336;-62
2023/09/02 13:35:11;;;;;;;;;;;;;;;;;;5072285;28;19943;-63
2023/09/02 13:37:36;;;;;;;;;;;;;;;;;;5071260;28;20308;-62
2023/09/02 13:40:02;;;;;;;;;;;;;;;;;;5062358;28;19923;-62
2023/09/02 13:42:29;;;;;;;;;;;;;;;;;;5066973;28;20015;-63
2023/09/02 13:44:54;;;;;;;;;;;;;;;;;;5061941;28;19916;-62
2023/09/02 13:47:20;;;;;;;;;;;;;;;;;;5066248;28;20035;-63
2023/09/02 13:49:46;;;;;;;;;;;;;;;;;;5067135;28;19923;-62
2023/09/02 13:52:12;;;;;;;;;;;;;;;;;;5065885;28;20399;-63
2023/09/02 13:54:38;;;;;;;;;;;;;;;;;;5063750;28;20006;-62
2023/09/02 13:57:04;;;;;;;;;;;;;;;;;;5068362;28;19963;-62
2023/09/02 13:59:30;;;;;;;;;;;;;;;;;;5061073;28;19920;-58
2023/09/02 14:01:56;;;;;;;;;;;;;;;;;;5062441;28;19951;-58
2023/09/02 14:04:22;;;;;;;;;;;;;;;;;;5066837;28;19917;-60
2023/09/02 14:06:48;;;;;;;;;;;;;;;;;;5068642;28;19954;-58
2023/09/02 14:09:14;;;;;;;;;;;;;;;;;;5067222;28;19964;-57
2023/09/02 14:11:39;;;;;;;;;;;;;;;;;;5059426;28;20324;-58
2023/09/02 14:14:05;;;;;;;;;;;;;;;;;;5071801;28;19999;-57
2023/09/02 14:16:31;;;;;;;;;;;;;;;;;;5068612;28;19954;-57
2023/09/02 14:18:57;;;;;;;;;;;;;;;;;;5073127;28;19912;-60
2023/09/02 14:21:23;;;;;;;;;;;;;;;;;;5064475;28;19967;-59
2023/09/02 14:23:49;;;;;;;;;;;;;;;;;;5071276;28;20376;-57
2023/09/02 14:26:15;;;;;;;;;;;;;;;;;;5071822;28;19912;-57
2023/09/02 14:28:41;;;;;;;;;;;;;;;;;;5054740;28;19972;-59
2023/09/02 14:31:07;;;;;;;;;;;;;;;;;;5060898;28;19963;-57
2023/09/02 14:33:32;;;;;;;;;;;;;;;;;;5066714;28;19921;-57
2023/09/02 14:35:59;;;;;;;;;;;;;;;;;;5071030;28;19959;-58
2023/09/02 14:38:25;;;;;;;;;;;;;;;;;;5067945;28;20008;-59
2023/09/02 14:40:51;;;;;;;;;;;;;;;;;;5069411;28;19912;-57
2023/09/02 14:43:17;;;;;;;;;;;;;;;;;;5058945;28;19964;-58
2023/09/02 14:45:43;;;;;;;;;;;;;;;;;;5058232;28;19979;-60
2023/09/02 14:48:09;;;;;;;;;;;;;;;;;;5069171;28;19916;-59
2023/09/02 14:50:39;;;;;;;;;;;;;;;;;;5058740;28;19928;-59
2023/09/02 14:53:05;;;;;;;;;;;;;;;;;;5064165;28;19917;-57
2023/09/02 14:55:31;;;;;;;;;;;;;;;;;;5065759;28;19963;-58
2023/09/02 14:57:57;;;;;;;;;;;;;;;;;;5066270;28;20210;-58
2023/09/02 15:00:24;;;;;;;;;;;;;;;;;;5065282;28;19921;-58
2023/09/02 15:02:50;;;;;;;;;;;;;;;;;;5062140;28;20393;-58
2023/09/02 15:05:16;;;;;;;;;;;;;;;;;;5070551;28;19954;-59
2023/09/02 15:07:42;;;;;;;;;;;;;;;;;;5061859;28;19920;-58
2023/09/02 15:10:07;;;;;;;;;;;;;;;;;;5072229;28;20390;-55
2023/09/02 15:12:33;;;;;;;;;;;;;;;;;;5065787;28;19952;-57
2023/09/02 15:15:00;;;;;;;;;;;;;;;;;;5061505;28;19948;-57
2023/09/02 15:17:27;;;;;;;;;;;;;;;;;;5071148;28;19995;-58
2023/09/02 15:19:53;;;;;;;;;;;;;;;;;;5060319;28;19925;-59
2023/09/02 15:22:19;;;;;;;;;;;;;;;;;;5065415;28;19963;-57
2023/09/02 15:24:45;;;;;;;;;;;;;;;;;;5060074;28;19913;-59
2023/09/02 15:27:11;;;;;;;;;;;;;;;;;;5063659;28;20383;-58
2023/09/02 15:29:37;;;;;;;;;;;;;;;;;;5067613;28;19926;-58
2023/09/02 15:32:03;;;;;;;;;;;;;;;;;;5064792;28;20392;-58
2023/09/02 15:34:29;;;;;;;;;;;;;;;;;;5065959;28;19962;-58
2023/09/02 15:36:55;;;;;;;;;;;;;;;;;;5071293;28;19913;-59
2023/09/02 15:39:21;;;;;;;;;;;;;;;;;;5063243;28;19966;-58
2023/09/02 15:41:47;;;;;;;;;;;;;;;;;;5063390;28;20325;-57
2023/09/02 15:44:13;;;;;;;;;;;;;;;;;;5065546;28;19916;-59
2023/09/02 15:46:38;;;;;;;;;;;;;;;;;;5067091;28;19983;-58
2023/09/02 15:49:04;;;;;;;;;;;;;;;;;;5065333;28;19948;-59
2023/09/02 15:51:30;;;;;;;;;;;;;;;;;;5068668;28;19916;-58
2023/09/02 15:53:56;;;;;;;;;;;;;;;;;;5068058;28;20449;-58
2023/09/02 15:56:22;;;;;;;;;;;;;;;;;;5058875;28;20016;-58
2023/09/02 15:58:48;;;;;;;;;;;;;;;;;;5065771;28;20011;-58
2023/09/02 16:01:14;;;;;;;;;;;;;;;;;;5067957;28;20337;-58
2023/09/02 16:03:40;;;;;;;;;;;;;;;;;;5066571;28;19909;-58
2023/09/02 16:06:06;;;;;;;;;;;;;;;;;;5066089;28;19916;-58
2023/09/02 16:08:32;;;;;;;;;;;;;;;;;;5054120;28;20380;-58
2023/09/02 16:10:58;;;;;;;;;;;;;;;;;;5070665;28;19923;-60
2023/09/02 16:13:24;;;;;;;;;;;;;;;;;;5069102;28;19917;-58
2023/09/02 16:15:50;;;;;;;;;;;;;;;;;;5068340;28;20212;-57
2023/09/02 16:18:15;;;;;;;;;;;;;;;;;;5061804;28;20013;-58
2023/09/02 16:20:41;;;;;;;;;;;;;;;;;;5069477;28;20350;-63
2023/09/02 16:23:07;;;;;;;;;;;;;;;;;;5067368;28;20069;-63
2023/09/02 16:25:33;;;;;;;;;;;;;;;;;;5064662;28;19916;-62
2023/09/02 16:27:59;;;;;;;;;;;;;;;;;;5063872;28;20448;-63
2023/09/02 16:30:25;;;;;;;;;;;;;;;;;;5065068;28;19921;-63
2023/09/02 16:32:51;;;;;;;;;;;;;;;;;;5063730;28;19940;-63
2023/09/02 16:35:17;;;;;;;;;;;;;;;;;;5065445;28;20079;-62
2023/09/02 16:37:44;;;;;;;;;;;;;;;;;;5069983;28;19924;-63